Time,TemperatureF,DewpointF,PressureIn,WindDirection,WindDirectionDegrees,WindSpeedMPH,WindSpeedGustMPH,Humidity,HourlyPrecipIn,Conditions,Clouds,dailyrainin,SoftwareType,DateUTC
2013-05-18 00:02:00,74.7,72.5,30.01,South,169,3.0,9.0,93,0.00,,,0.00,meteohub,2013-05-18 05:02:00,
2013-05-18 00:07:00,74.7,72.5,30.01,South,170,1.0,9.0,93,0.00,,,0.00,meteohub,2013-05-18 05:07:00,
2013-05-18 00:12:00,74.7,72.5,30.01,SE,138,10.0,10.0,93,0.00,,,0.00,meteohub,2013-05-18 05:12:00,
2013-05-18 00:17:00,74.5,72.3,30.01,South,191,3.0,10.0,93,0.00,,,0.00,meteohub,2013-05-18 05:17:00,
2013-05-18 00:22:00,74.5,72.7,30.01,South,184,4.0,10.0,94,0.00,,,0.00,meteohub,2013-05-18 05:22:00,
2013-05-18 00:27:00,74.3,72.5,30.01,South,181,2.0,10.0,94,0.00,,,0.00,meteohub,2013-05-18 05:27:00,
2013-05-18 00:32:00,74.3,72.5,30.00,South,177,5.0,9.0,94,0.00,,,0.00,meteohub,2013-05-18 05:32:00,
2013-05-18 00:37:00,74.1,72.3,30.00,South,169,6.0,9.0,94,0.00,,,0.00,meteohub,2013-05-18 05:37:00,
2013-05-18 00:42:00,74.1,72.3,30.00,SSW,197,1.0,9.0,94,0.00,,,0.00,meteohub,2013-05-18 05:42:00,
2013-05-18 00:47:00,74.1,72.3,30.00,South,175,9.0,12.0,94,0.00,,,0.00,meteohub,2013-05-18 05:47:00,
2013-05-18 00:52:00,74.1,72.3,30.00,South,173,4.0,12.0,94,0.00,,,0.00,meteohub,2013-05-18 05:52:00,
2013-05-18 00:57:00,74.1,72.3,30.00,South,175,6.0,12.0,94,0.00,,,0.00,meteohub,2013-05-18 05:57:00,
2013-05-18 01:01:00,74.1,72.3,30.00,SSE,154,2.0,12.0,94,0.00,,,0.00,meteohub,2013-05-18 06:01:00,
2013-05-18 01:07:00,73.9,72.1,29.99,South,189,5.0,12.0,94,0.00,,,0.00,meteohub,2013-05-18 06:07:00,
2013-05-18 01:12:00,73.9,72.1,29.99,South,175,4.0,9.0,94,0.00,,,0.00,meteohub,2013-05-18 06:12:00,
2013-05-18 01:17:00,73.8,72.0,29.99,SSE,160,5.0,9.0,94,0.00,,,0.00,meteohub,2013-05-18 06:17:00,
2013-05-18 01:22:00,73.8,72.3,29.99,South,184,3.0,8.0,95,0.00,,,0.00,meteohub,2013-05-18 06:22:00,
2013-05-18 01:27:00,73.8,72.3,29.99,SSE,162,1.0,8.0,95,0.00,,,0.00,meteohub,2013-05-18 06:27:00,
2013-05-18 01:32:00,73.6,72.1,29.98,South,190,2.0,8.0,95,0.00,,,0.00,meteohub,2013-05-18 06:32:00,
2013-05-18 01:37:00,73.6,72.1,29.98,South,174,5.0,8.0,95,0.00,,,0.00,meteohub,2013-05-18 06:37:00,
2013-05-18 01:41:00,73.8,72.3,29.99,South,182,5.0,10.0,95,0.00,,,0.00,meteohub,2013-05-18 06:41:00,
2013-05-18 01:47:00,73.8,72.3,29.99,South,182,3.0,10.0,95,0.00,,,0.00,meteohub,2013-05-18 06:47:00,
2013-05-18 01:52:00,73.9,72.5,29.98,SW,219,3.0,10.0,95,0.00,,,0.00,meteohub,2013-05-18 06:52:00,
2013-05-18 01:57:00,73.9,72.5,29.98,South,183,4.0,10.0,95,0.00,,,0.00,meteohub,2013-05-18 06:57:00,
2013-05-18 02:02:00,73.9,72.5,29.98,SSE,160,3.0,10.0,95,0.00,,,0.00,meteohub,2013-05-18 07:02:00,
2013-05-18 02:07:00,73.9,72.5,29.98,SSE,162,4.0,8.0,95,0.00,,,0.00,meteohub,2013-05-18 07:07:00,
2013-05-18 02:12:00,74.1,72.7,29.98,SSW,192,3.0,8.0,95,0.00,,,0.00,meteohub,2013-05-18 07:12:00,
2013-05-18 02:17:00,74.1,72.7,29.98,South,188,4.0,8.0,95,0.00,,,0.00,meteohub,2013-05-18 07:17:00,
2013-05-18 02:22:00,74.1,72.7,29.98,South,169,6.0,8.0,95,0.00,,,0.00,meteohub,2013-05-18 07:22:00,
2013-05-18 02:27:00,74.1,72.7,29.98,South,190,5.0,7.0,95,0.00,,,0.00,meteohub,2013-05-18 07:27:00,
2013-05-18 02:32:00,74.1,72.3,29.98,SE,144,7.0,9.0,94,0.00,,,0.00,meteohub,2013-05-18 07:32:00,
2013-05-18 02:37:00,74.1,72.3,29.98,SSE,163,5.0,9.0,94,0.00,,,0.00,meteohub,2013-05-18 07:37:00,
2013-05-18 02:42:00,74.1,72.3,29.98,SSE,156,3.0,11.0,94,0.00,,,0.00,meteohub,2013-05-18 07:42:00,
2013-05-18 02:47:00,73.9,72.1,29.98,SSW,192,5.0,11.0,94,0.00,,,0.00,meteohub,2013-05-18 07:47:00,
2013-05-18 02:52:00,73.9,72.1,29.97,SSE,167,6.0,9.0,94,0.00,,,0.00,meteohub,2013-05-18 07:52:00,
2013-05-18 02:57:00,73.9,72.1,29.97,SSE,164,5.0,9.0,94,0.00,,,0.00,meteohub,2013-05-18 07:57:00,
2013-05-18 03:02:00,74.1,72.3,29.97,South,178,4.0,9.0,94,0.00,,,0.00,meteohub,2013-05-18 08:02:00,
2013-05-18 03:07:00,74.1,72.3,29.97,South,176,1.0,9.0,94,0.00,,,0.00,meteohub,2013-05-18 08:07:00,
2013-05-18 03:12:00,74.3,72.5,29.97,SSE,160,3.0,7.0,94,0.00,,,0.00,meteohub,2013-05-18 08:12:00,
2013-05-18 03:17:00,74.5,72.7,29.98,SSW,198,2.0,7.0,94,0.00,,,0.00,meteohub,2013-05-18 08:17:00,
2013-05-18 03:22:00,74.7,72.5,29.98,SSE,165,6.0,7.0,93,0.00,,,0.00,meteohub,2013-05-18 08:22:00,
2013-05-18 03:27:00,74.7,72.5,29.97,SE,146,1.0,9.0,93,0.00,,,0.00,meteohub,2013-05-18 08:27:00,
2013-05-18 03:32:00,74.7,72.1,29.97,South,178,5.0,9.0,92,0.00,,,0.00,meteohub,2013-05-18 08:32:00,
2013-05-18 03:37:00,74.8,72.3,29.97,South,169,4.0,9.0,92,0.00,,,0.00,meteohub,2013-05-18 08:37:00,
2013-05-18 03:42:00,74.8,72.3,29.97,SSW,196,5.0,9.0,92,0.00,,,0.00,meteohub,2013-05-18 08:42:00,
2013-05-18 03:47:00,74.8,72.0,29.97,SSE,165,6.0,9.0,91,0.00,,,0.00,meteohub,2013-05-18 08:47:00,
2013-05-18 03:52:00,74.7,71.8,29.97,SSE,149,5.0,10.0,91,0.00,,,0.00,meteohub,2013-05-18 08:52:00,
2013-05-18 03:57:00,74.7,71.8,29.97,SSE,157,3.0,10.0,91,0.00,,,0.00,meteohub,2013-05-18 08:57:00,
2013-05-18 04:02:00,74.5,72.0,29.97,SSE,157,2.0,10.0,92,0.00,,,0.00,meteohub,2013-05-18 09:02:00,
2013-05-18 04:07:00,74.5,72.0,29.97,SSE,148,2.0,7.0,92,0.00,,,0.00,meteohub,2013-05-18 09:07:00,
2013-05-18 04:12:00,74.5,72.3,29.97,SSE,163,1.0,7.0,93,0.00,,,0.00,meteohub,2013-05-18 09:12:00,
2013-05-18 04:17:00,74.5,72.3,29.97,South,174,3.0,7.0,93,0.00,,,0.00,meteohub,2013-05-18 09:17:00,
2013-05-18 04:22:00,74.3,72.1,29.97,South,178,2.0,6.0,93,0.00,,,0.00,meteohub,2013-05-18 09:22:00,
2013-05-18 04:27:00,74.3,72.1,29.97,SE,146,3.0,7.0,93,0.00,,,0.00,meteohub,2013-05-18 09:27:00,
2013-05-18 04:32:00,74.3,72.1,29.97,SSE,165,0.0,7.0,93,0.00,,,0.00,meteohub,2013-05-18 09:32:00,
2013-05-18 04:37:00,74.3,72.1,29.97,SSE,167,6.0,6.0,93,0.00,,,0.00,meteohub,2013-05-18 09:37:00,
2013-05-18 04:42:00,74.1,72.0,29.98,SSE,158,8.0,8.0,93,0.00,,,0.00,meteohub,2013-05-18 09:42:00,
2013-05-18 04:47:00,74.1,72.3,29.98,SSE,157,3.0,8.0,94,0.00,,,0.00,meteohub,2013-05-18 09:47:00,
2013-05-18 04:52:00,74.1,72.3,29.98,SSE,156,6.0,8.0,94,0.00,,,0.00,meteohub,2013-05-18 09:52:00,
2013-05-18 04:57:00,73.9,71.8,29.97,SE,146,6.0,8.0,93,0.00,,,0.00,meteohub,2013-05-18 09:57:00,
2013-05-18 05:02:00,74.1,72.0,29.97,SSE,161,2.0,8.0,93,0.00,,,0.00,meteohub,2013-05-18 10:02:00,
2013-05-18 05:07:00,74.1,72.0,29.98,SSE,166,4.0,8.0,93,0.00,,,0.00,meteohub,2013-05-18 10:07:00,
2013-05-18 05:12:00,74.3,72.5,29.98,SE,140,4.0,8.0,94,0.00,,,0.00,meteohub,2013-05-18 10:12:00,
2013-05-18 05:17:00,74.5,72.3,29.98,SSE,165,3.0,8.0,93,0.00,,,0.00,meteohub,2013-05-18 10:17:00,
2013-05-18 05:22:00,74.7,72.5,29.98,SSE,153,5.0,8.0,93,0.00,,,0.00,meteohub,2013-05-18 10:22:00,
2013-05-18 05:27:00,74.7,72.5,29.98,SSE,153,2.0,7.0,93,0.00,,,0.00,meteohub,2013-05-18 10:27:00,
2013-05-18 05:32:00,74.7,72.5,29.98,South,174,3.0,8.0,93,0.00,,,0.00,meteohub,2013-05-18 10:32:00,
2013-05-18 05:37:00,74.7,72.5,29.98,SSE,163,4.0,8.0,93,0.00,,,0.00,meteohub,2013-05-18 10:37:00,
2013-05-18 05:42:00,74.5,72.3,29.98,SE,134,6.0,8.0,93,0.00,,,0.00,meteohub,2013-05-18 10:42:00,
2013-05-18 05:47:00,74.7,72.5,29.98,SE,143,3.0,7.0,93,0.00,,,0.00,meteohub,2013-05-18 10:47:00,
2013-05-18 05:51:00,74.7,72.5,29.99,SSE,159,5.0,7.0,93,0.00,,,0.00,meteohub,2013-05-18 10:51:00,
2013-05-18 05:57:00,74.7,72.5,29.99,SSE,151,5.0,7.0,93,0.00,,,0.00,meteohub,2013-05-18 10:57:00,
2013-05-18 06:02:00,74.5,72.3,29.99,SSE,151,5.0,6.0,93,0.00,,,0.00,meteohub,2013-05-18 11:02:00,
2013-05-18 06:07:00,74.5,72.3,29.99,South,177,3.0,6.0,93,0.00,,,0.00,meteohub,2013-05-18 11:07:00,
2013-05-18 06:12:00,74.5,72.3,29.99,SSE,163,4.0,6.0,93,0.00,,,0.00,meteohub,2013-05-18 11:12:00,
2013-05-18 06:17:00,74.5,72.3,29.99,South,178,3.0,8.0,93,0.00,,,0.00,meteohub,2013-05-18 11:17:00,
2013-05-18 06:22:00,74.5,72.3,29.99,South,179,4.0,8.0,93,0.00,,,0.00,meteohub,2013-05-18 11:22:00,
2013-05-18 06:27:00,74.7,72.5,30.00,South,183,3.0,8.0,93,0.00,,,0.00,meteohub,2013-05-18 11:27:00,
2013-05-18 06:32:00,74.8,72.7,30.00,SSE,162,3.0,8.0,93,0.00,,,0.00,meteohub,2013-05-18 11:32:00,
2013-05-18 06:37:00,75.0,72.9,30.00,SSW,197,3.0,8.0,93,0.00,,,0.00,meteohub,2013-05-18 11:37:00,
2013-05-18 06:42:00,75.2,73.0,30.00,SSE,148,6.0,10.0,93,0.00,,,0.00,meteohub,2013-05-18 11:42:00,
2013-05-18 06:47:00,75.4,72.9,30.01,SSE,162,4.0,11.0,92,0.00,,,0.00,meteohub,2013-05-18 11:47:00,
2013-05-18 06:52:00,75.4,72.9,30.01,South,184,4.0,11.0,92,0.00,,,0.00,meteohub,2013-05-18 11:52:00,
2013-05-18 06:57:00,75.4,72.9,30.01,SSE,163,3.0,11.0,92,0.00,,,0.00,meteohub,2013-05-18 11:57:00,
2013-05-18 07:02:00,75.4,72.9,30.01,South,174,1.0,9.0,92,0.00,,,0.00,meteohub,2013-05-18 12:02:00,
2013-05-18 07:06:00,75.4,72.9,30.01,South,173,5.0,9.0,92,0.00,,,0.00,meteohub,2013-05-18 12:06:00,
2013-05-18 07:11:00,75.4,72.9,30.02,SSE,158,6.0,11.0,92,0.00,,,0.00,meteohub,2013-05-18 12:11:00,
2013-05-18 07:17:00,75.4,72.9,30.02,South,173,5.0,11.0,92,0.00,,,0.00,meteohub,2013-05-18 12:17:00,
2013-05-18 07:22:00,75.6,73.0,30.02,SSE,159,8.0,11.0,92,0.00,,,0.00,meteohub,2013-05-18 12:22:00,
2013-05-18 07:27:00,75.6,73.4,30.02,SSW,197,2.0,8.0,93,0.00,,,0.00,meteohub,2013-05-18 12:27:00,
2013-05-18 07:32:00,75.6,73.4,30.02,SSE,157,4.0,8.0,93,0.00,,,0.00,meteohub,2013-05-18 12:32:00,
2013-05-18 07:37:00,75.6,73.4,30.02,SSE,161,5.0,8.0,93,0.00,,,0.00,meteohub,2013-05-18 12:37:00,
2013-05-18 07:42:00,75.7,73.6,30.02,South,189,4.0,8.0,93,0.00,,,0.00,meteohub,2013-05-18 12:42:00,
2013-05-18 07:47:00,75.7,73.2,30.02,SSW,205,4.0,8.0,92,0.00,,,0.00,meteohub,2013-05-18 12:47:00,
2013-05-18 07:52:00,75.7,73.2,30.03,SSE,159,2.0,8.0,92,0.00,,,0.00,meteohub,2013-05-18 12:52:00,
2013-05-18 07:57:00,76.1,73.6,30.03,South,175,5.0,8.0,92,0.00,,,0.00,meteohub,2013-05-18 12:57:00,
2013-05-18 08:02:00,76.5,73.6,30.03,South,184,5.0,8.0,91,0.00,,,0.00,meteohub,2013-05-18 13:02:00,
2013-05-18 08:07:00,76.5,73.6,30.03,South,182,4.0,8.0,91,0.00,,,0.00,meteohub,2013-05-18 13:07:00,
2013-05-18 08:12:00,76.5,73.6,30.03,SSE,163,6.0,8.0,91,0.00,,,0.00,meteohub,2013-05-18 13:12:00,
2013-05-18 08:17:00,76.5,73.2,30.03,SSW,197,2.0,8.0,90,0.00,,,0.00,meteohub,2013-05-18 13:17:00,
2013-05-18 08:22:00,76.5,73.2,30.03,SSW,197,2.0,7.0,90,0.00,,,0.00,meteohub,2013-05-18 13:22:00,
2013-05-18 08:27:00,76.5,73.2,30.03,SSE,153,6.0,6.0,90,0.00,,,0.00,meteohub,2013-05-18 13:27:00,
2013-05-18 08:32:00,76.6,73.2,30.04,South,169,6.0,6.0,89,0.00,,,0.00,meteohub,2013-05-18 13:32:00,
2013-05-18 08:37:00,77.2,73.8,30.04,SSW,192,3.0,10.0,89,0.00,,,0.00,meteohub,2013-05-18 13:37:00,
2013-05-18 08:42:00,77.7,73.6,30.04,SSE,160,3.0,10.0,87,0.00,,,0.00,meteohub,2013-05-18 13:42:00,
2013-05-18 08:47:00,78.3,73.4,30.04,SE,137,5.0,10.0,85,0.00,,,0.00,meteohub,2013-05-18 13:47:00,
2013-05-18 08:52:00,78.6,73.4,30.04,SSW,202,7.0,10.0,84,0.00,,,0.00,meteohub,2013-05-18 13:52:00,
2013-05-18 08:57:00,78.8,72.9,30.04,SSE,155,6.0,12.0,82,0.00,,,0.00,meteohub,2013-05-18 13:57:00,
2013-05-18 09:02:00,79.2,73.2,30.04,SSE,159,2.0,12.0,82,0.00,,,0.00,meteohub,2013-05-18 14:02:00,
2013-05-18 09:07:00,79.2,73.2,30.04,South,190,4.0,12.0,82,0.00,,,0.00,meteohub,2013-05-18 14:07:00,
2013-05-18 09:12:00,79.3,72.7,30.04,South,178,3.0,11.0,80,0.00,,,0.00,meteohub,2013-05-18 14:12:00,
2013-05-18 09:17:00,79.3,72.7,30.05,SSE,159,6.0,11.0,80,0.00,,,0.00,meteohub,2013-05-18 14:17:00,
2013-05-18 09:22:00,79.2,72.5,30.05,South,176,2.0,12.0,80,0.00,,,0.00,meteohub,2013-05-18 14:22:00,
2013-05-18 09:27:00,79.3,72.7,30.05,South,181,1.0,12.0,80,0.00,,,0.00,meteohub,2013-05-18 14:27:00,
2013-05-18 09:32:00,79.3,72.7,30.06,SSW,196,0.0,12.0,80,0.00,,,0.00,meteohub,2013-05-18 14:32:00,
2013-05-18 09:37:00,79.3,72.7,30.05,South,182,2.0,7.0,80,0.00,,,0.00,meteohub,2013-05-18 14:37:00,
2013-05-18 09:42:00,79.5,72.9,30.06,South,178,5.0,9.0,80,0.00,,,0.00,meteohub,2013-05-18 14:42:00,
2013-05-18 09:47:00,79.5,72.5,30.06,SSE,168,5.0,9.0,79,0.00,,,0.00,meteohub,2013-05-18 14:47:00,
2013-05-18 09:52:00,79.5,72.5,30.06,South,169,4.0,9.0,79,0.00,,,0.00,meteohub,2013-05-18 14:52:00,
2013-05-18 09:57:00,79.9,72.3,30.06,SSW,205,7.0,9.0,78,0.00,,,0.00,meteohub,2013-05-18 14:57:00,
2013-05-18 10:02:00,80.2,72.7,30.06,ESE,121,4.0,12.0,78,0.00,,,0.00,meteohub,2013-05-18 15:02:00,
2013-05-18 10:07:00,80.4,72.5,30.06,SSE,163,8.0,12.0,77,0.00,,,0.00,meteohub,2013-05-18 15:07:00,
2013-05-18 10:12:00,80.2,72.3,30.05,SSW,192,5.0,13.0,77,0.00,,,0.00,meteohub,2013-05-18 15:12:00,
2013-05-18 10:17:00,80.6,72.7,30.05,SSW,213,5.0,13.0,77,0.00,,,0.00,meteohub,2013-05-18 15:17:00,
2013-05-18 10:22:00,80.2,72.3,30.05,SSW,207,3.0,13.0,77,0.00,,,0.00,meteohub,2013-05-18 15:22:00,
2013-05-18 10:27:00,80.6,72.7,30.06,SW,214,3.0,13.0,77,0.00,,,0.00,meteohub,2013-05-18 15:27:00,
2013-05-18 10:32:00,81.1,72.9,30.06,SSE,165,6.0,11.0,76,0.00,,,0.00,meteohub,2013-05-18 15:32:00,
2013-05-18 10:36:00,81.3,72.7,30.06,SSE,153,3.0,10.0,75,0.00,,,0.00,meteohub,2013-05-18 15:36:00,
2013-05-18 10:42:00,81.5,72.3,30.05,SW,215,8.0,10.0,74,0.00,,,0.00,meteohub,2013-05-18 15:42:00,
2013-05-18 10:47:00,81.9,72.7,30.05,SSE,163,6.0,12.0,74,0.00,,,0.00,meteohub,2013-05-18 15:47:00,
2013-05-18 10:52:00,81.9,72.7,30.05,SSW,206,6.0,12.0,74,0.00,,,0.00,meteohub,2013-05-18 15:52:00,
2013-05-18 10:57:00,82.0,72.5,30.05,South,178,10.0,12.0,73,0.00,,,0.00,meteohub,2013-05-18 15:57:00,
2013-05-18 11:02:00,82.4,72.5,30.06,SSW,194,7.0,15.0,72,0.00,,,0.00,meteohub,2013-05-18 16:02:00,
2013-05-18 11:07:00,82.8,72.0,30.06,South,190,8.0,15.0,70,0.00,,,0.00,meteohub,2013-05-18 16:07:00,
2013-05-18 11:12:00,82.9,73.0,30.05,South,182,5.0,15.0,72,0.00,,,0.00,meteohub,2013-05-18 16:12:00,
2013-05-18 11:17:00,83.1,72.3,30.05,SSE,165,11.0,13.0,70,0.00,,,0.00,meteohub,2013-05-18 16:17:00,
2013-05-18 11:22:00,82.9,72.1,30.05,South,171,5.0,13.0,70,0.00,,,0.00,meteohub,2013-05-18 16:22:00,
2013-05-18 11:27:00,82.9,73.4,30.05,WSW,244,7.0,14.0,73,0.00,,,0.00,meteohub,2013-05-18 16:27:00,
2013-05-18 11:32:00,82.6,73.0,30.05,SW,223,4.0,14.0,73,0.00,,,0.00,meteohub,2013-05-18 16:32:00,
2013-05-18 11:37:00,82.6,73.0,30.05,SSW,202,4.0,14.0,73,0.00,,,0.00,meteohub,2013-05-18 16:37:00,
2013-05-18 11:42:00,82.6,72.7,30.05,SSW,194,6.0,10.0,72,0.00,,,0.00,meteohub,2013-05-18 16:42:00,
2013-05-18 11:47:00,82.6,71.8,30.05,SW,223,8.0,12.0,70,0.00,,,0.00,meteohub,2013-05-18 16:47:00,
2013-05-18 11:52:00,82.8,72.3,30.04,SSE,160,5.0,14.0,71,0.00,,,0.00,meteohub,2013-05-18 16:52:00,
2013-05-18 11:57:00,83.1,72.0,30.04,SSE,147,11.0,14.0,69,0.00,,,0.00,meteohub,2013-05-18 16:57:00,
2013-05-18 12:02:00,83.5,72.7,30.04,SSE,159,4.0,14.0,70,0.00,,,0.00,meteohub,2013-05-18 17:02:00,
2013-05-18 12:07:00,84.0,72.3,30.04,South,172,3.0,13.0,68,0.00,,,0.00,meteohub,2013-05-18 17:07:00,
2013-05-18 12:12:00,83.7,72.0,30.04,South,188,7.0,13.0,68,0.00,,,0.00,meteohub,2013-05-18 17:12:00,
2013-05-18 12:17:00,83.7,72.3,30.04,SSW,205,7.0,11.0,69,0.00,,,0.00,meteohub,2013-05-18 17:17:00,
2013-05-18 12:22:00,84.6,72.9,30.03,SE,142,7.0,11.0,68,0.00,,,0.00,meteohub,2013-05-18 17:22:00,
2013-05-18 12:27:00,84.4,72.1,30.03,SSE,153,5.0,11.0,67,0.00,,,0.00,meteohub,2013-05-18 17:27:00,
2013-05-18 12:32:00,84.2,72.5,30.03,South,176,3.0,13.0,68,0.00,,,0.00,meteohub,2013-05-18 17:32:00,
2013-05-18 12:37:00,84.4,71.8,30.03,SE,140,2.0,13.0,66,0.00,,,0.00,meteohub,2013-05-18 17:37:00,
2013-05-18 12:42:00,84.6,72.3,30.03,SE,140,7.0,13.0,67,0.00,,,0.00,meteohub,2013-05-18 17:42:00,
2013-05-18 12:47:00,84.6,72.3,30.03,SSW,200,7.0,13.0,67,0.00,,,0.00,meteohub,2013-05-18 17:47:00,
2013-05-18 12:52:00,84.7,72.1,30.02,South,180,4.0,12.0,66,0.00,,,0.00,meteohub,2013-05-18 17:52:00,
2013-05-18 12:57:00,84.6,72.3,30.02,SSE,159,10.0,11.0,67,0.00,,,0.00,meteohub,2013-05-18 17:57:00,
2013-05-18 13:02:00,84.6,72.3,30.02,SSE,164,7.0,11.0,67,0.00,,,0.00,meteohub,2013-05-18 18:02:00,
2013-05-18 13:07:00,84.6,72.3,30.02,SSE,165,5.0,10.0,67,0.00,,,0.00,meteohub,2013-05-18 18:07:00,
2013-05-18 13:12:00,84.7,72.1,30.02,South,180,4.0,11.0,66,0.00,,,0.00,meteohub,2013-05-18 18:12:00,
2013-05-18 13:17:00,85.1,72.0,30.02,South,169,5.0,11.0,65,0.00,,,0.00,meteohub,2013-05-18 18:17:00,
2013-05-18 13:22:00,85.3,72.1,30.01,SSE,167,3.0,11.0,65,0.00,,,0.00,meteohub,2013-05-18 18:22:00,
2013-05-18 13:27:00,85.3,72.7,30.01,SE,140,6.0,11.0,66,0.00,,,0.00,meteohub,2013-05-18 18:27:00,
2013-05-18 13:32:00,85.3,72.7,30.02,SSE,154,4.0,11.0,66,0.00,,,0.00,meteohub,2013-05-18 18:32:00,
2013-05-18 13:37:00,85.3,72.7,30.01,SSE,163,9.0,11.0,66,0.00,,,0.00,meteohub,2013-05-18 18:37:00,
2013-05-18 13:42:00,85.6,73.0,30.01,South,188,3.0,11.0,66,0.00,,,0.00,meteohub,2013-05-18 18:42:00,
2013-05-18 13:47:00,86.2,73.0,30.01,SSE,157,9.0,11.0,65,0.00,,,0.00,meteohub,2013-05-18 18:47:00,
2013-05-18 13:52:00,85.8,72.7,30.01,SSW,192,5.0,12.0,65,0.00,,,0.00,meteohub,2013-05-18 18:52:00,
2013-05-18 13:57:00,86.2,72.1,30.01,South,188,5.0,12.0,63,0.00,,,0.00,meteohub,2013-05-18 18:57:00,
2013-05-18 14:02:00,86.0,72.0,30.01,SSE,148,6.0,12.0,63,0.00,,,0.00,meteohub,2013-05-18 19:02:00,
2013-05-18 14:07:00,85.8,72.7,30.01,SSE,160,4.0,12.0,65,0.00,,,0.00,meteohub,2013-05-18 19:07:00,
2013-05-18 14:12:00,86.0,72.3,30.01,SSE,162,9.0,12.0,64,0.00,,,0.00,meteohub,2013-05-18 19:12:00,
2013-05-18 14:17:00,86.2,72.5,30.01,SSW,197,8.0,11.0,64,0.00,,,0.00,meteohub,2013-05-18 19:17:00,
2013-05-18 14:22:00,86.0,72.3,30.01,SW,227,8.0,11.0,64,0.00,,,0.00,meteohub,2013-05-18 19:22:00,
2013-05-18 14:27:00,86.4,72.7,30.01,SSW,193,7.0,11.0,64,0.00,,,0.00,meteohub,2013-05-18 19:27:00,
2013-05-18 14:32:00,86.2,72.5,30.01,SE,142,4.0,11.0,64,0.00,,,0.00,meteohub,2013-05-18 19:32:00,
2013-05-18 14:37:00,85.8,71.2,30.01,SSE,160,6.0,11.0,62,0.00,,,0.00,meteohub,2013-05-18 19:37:00,
2013-05-18 14:43:00,85.8,72.1,30.01,SSE,149,8.0,15.0,64,0.00,,,0.00,meteohub,2013-05-18 19:43:00,
2013-05-18 14:48:00,86.2,72.5,30.01,South,170,3.0,15.0,64,0.00,,,0.00,meteohub,2013-05-18 19:48:00,
2013-05-18 14:53:00,86.2,72.1,30.01,South,183,3.0,10.0,63,0.00,,,0.00,meteohub,2013-05-18 19:53:00,
2013-05-18 14:58:00,86.2,72.1,30.01,SE,142,4.0,11.0,63,0.00,,,0.00,meteohub,2013-05-18 19:58:00,
2013-05-18 15:03:00,86.2,72.1,30.00,SW,216,7.0,11.0,63,0.00,,,0.00,meteohub,2013-05-18 20:03:00,
2013-05-18 15:08:00,86.5,72.5,30.00,SW,229,5.0,11.0,63,0.00,,,0.00,meteohub,2013-05-18 20:08:00,
2013-05-18 15:13:00,86.4,72.3,30.00,SSE,162,7.0,11.0,63,0.00,,,0.00,meteohub,2013-05-18 20:13:00,
2013-05-18 15:18:00,86.5,72.5,30.00,South,171,7.0,14.0,63,0.00,,,0.00,meteohub,2013-05-18 20:18:00,
2013-05-18 15:23:00,86.4,71.2,30.00,SW,235,8.0,14.0,61,0.00,,,0.00,meteohub,2013-05-18 20:23:00,
2013-05-18 15:28:00,86.4,71.8,29.99,SSW,209,9.0,14.0,62,0.00,,,0.00,meteohub,2013-05-18 20:28:00,
2013-05-18 15:33:00,86.5,72.0,29.99,SSE,148,6.0,14.0,62,0.00,,,0.00,meteohub,2013-05-18 20:33:00,
2013-05-18 15:38:00,86.5,72.0,29.99,SSE,148,6.0,12.0,62,0.00,,,0.00,meteohub,2013-05-18 20:38:00,
2013-05-18 15:43:00,86.5,71.1,29.99,SSE,166,5.0,12.0,60,0.00,,,0.00,meteohub,2013-05-18 20:43:00,
2013-05-18 15:48:00,86.5,71.1,29.99,WSW,238,8.0,10.0,60,0.00,,,0.00,meteohub,2013-05-18 20:48:00,
2013-05-18 15:53:00,86.7,71.2,29.99,SSE,159,10.0,15.0,60,0.00,,,0.00,meteohub,2013-05-18 20:53:00,
2013-05-18 15:58:00,86.5,71.1,29.99,SSW,202,10.0,15.0,60,0.00,,,0.00,meteohub,2013-05-18 20:58:00,
2013-05-18 16:03:00,86.5,70.5,29.99,SSW,212,6.0,13.0,59,0.00,,,0.00,meteohub,2013-05-18 21:03:00,
2013-05-18 16:08:00,86.5,70.5,29.99,South,190,4.0,13.0,59,0.00,,,0.00,meteohub,2013-05-18 21:08:00,
2013-05-18 16:13:00,86.5,70.0,29.98,SSE,152,7.0,14.0,58,0.00,,,0.00,meteohub,2013-05-18 21:13:00,
2013-05-18 16:18:00,86.5,70.5,29.98,SE,146,3.0,14.0,59,0.00,,,0.00,meteohub,2013-05-18 21:18:00,
2013-05-18 16:23:00,86.7,70.7,29.98,SSE,151,4.0,9.0,59,0.00,,,0.00,meteohub,2013-05-18 21:23:00,
2013-05-18 16:28:00,86.7,71.2,29.98,SSE,163,6.0,10.0,60,0.00,,,0.00,meteohub,2013-05-18 21:28:00,
2013-05-18 16:33:00,86.7,70.2,29.98,South,189,5.0,10.0,58,0.00,,,0.00,meteohub,2013-05-18 21:33:00,
2013-05-18 16:38:00,87.1,70.5,29.98,SSW,194,7.0,10.0,58,0.00,,,0.00,meteohub,2013-05-18 21:38:00,
2013-05-18 16:43:00,87.3,71.6,29.98,SSW,210,9.0,9.0,60,0.00,,,0.00,meteohub,2013-05-18 21:43:00,
2013-05-18 16:48:00,87.6,71.6,29.98,SSE,149,6.0,9.0,59,0.00,,,0.00,meteohub,2013-05-18 21:48:00,
2013-05-18 16:53:00,87.4,71.4,29.99,SSE,147,6.0,9.0,59,0.00,,,0.00,meteohub,2013-05-18 21:53:00,
2013-05-18 16:58:00,86.7,70.7,29.98,SSE,153,5.0,9.0,59,0.00,,,0.00,meteohub,2013-05-18 21:58:00,
2013-05-18 17:03:00,86.7,71.6,29.99,South,183,4.0,8.0,61,0.00,,,0.00,meteohub,2013-05-18 22:03:00,
2013-05-18 17:08:00,86.9,70.9,29.99,South,179,4.0,9.0,59,0.00,,,0.00,meteohub,2013-05-18 22:08:00,
2013-05-18 17:13:00,86.7,71.2,29.99,SSE,167,7.0,10.0,60,0.00,,,0.00,meteohub,2013-05-18 22:13:00,
2013-05-18 17:18:00,86.9,71.4,29.99,SSE,151,4.0,10.0,60,0.00,,,0.00,meteohub,2013-05-18 22:18:00,
2013-05-18 17:23:00,87.1,71.4,29.99,South,174,3.0,10.0,60,0.00,,,0.00,meteohub,2013-05-18 22:23:00,
2013-05-18 17:29:00,87.1,71.1,29.99,SSW,195,1.0,10.0,59,0.00,,,0.00,meteohub,2013-05-18 22:29:00,
2013-05-18 17:34:00,87.1,71.4,29.99,South,169,5.0,7.0,60,0.00,,,0.00,meteohub,2013-05-18 22:34:00,
2013-05-18 17:39:00,87.1,71.1,29.99,SSW,209,6.0,8.0,59,0.00,,,0.00,meteohub,2013-05-18 22:39:00,
2013-05-18 17:44:00,86.9,70.9,29.99,SSW,212,6.0,10.0,59,0.00,,,0.00,meteohub,2013-05-18 22:44:00,
2013-05-18 17:49:00,86.5,70.5,29.99,SW,217,0.0,10.0,59,0.00,,,0.00,meteohub,2013-05-18 22:49:00,
2013-05-18 17:54:00,86.7,70.7,29.99,South,181,6.0,10.0,59,0.00,,,0.00,meteohub,2013-05-18 22:54:00,
2013-05-18 17:59:00,86.4,70.9,29.99,SW,230,10.0,10.0,60,0.00,,,0.00,meteohub,2013-05-18 22:59:00,
2013-05-18 18:04:00,86.4,71.2,29.99,South,189,3.0,12.0,61,0.00,,,0.00,meteohub,2013-05-18 23:04:00,
2013-05-18 18:09:00,86.4,71.2,29.99,SSW,207,5.0,12.0,61,0.00,,,0.00,meteohub,2013-05-18 23:09:00,
2013-05-18 18:14:00,86.4,71.8,29.99,South,172,5.0,12.0,62,0.00,,,0.00,meteohub,2013-05-18 23:14:00,
2013-05-18 18:19:00,86.2,71.1,29.98,SW,236,7.0,10.0,61,0.00,,,0.00,meteohub,2013-05-18 23:19:00,
2013-05-18 18:24:00,86.0,71.4,29.98,SSW,201,6.0,10.0,62,0.00,,,0.00,meteohub,2013-05-18 23:24:00,
2013-05-18 18:29:00,86.0,71.4,29.99,South,186,5.0,10.0,62,0.00,,,0.00,meteohub,2013-05-18 23:29:00,
2013-05-18 18:34:00,85.6,71.6,29.99,SSW,194,1.0,10.0,63,0.00,,,0.00,meteohub,2013-05-18 23:34:00,
2013-05-18 18:39:00,85.3,71.2,29.99,SW,224,3.0,9.0,63,0.00,,,0.00,meteohub,2013-05-18 23:39:00,
2013-05-18 18:44:00,85.3,71.8,29.99,SW,214,5.0,10.0,64,0.00,,,0.00,meteohub,2013-05-18 23:44:00,
2013-05-18 18:49:00,85.3,71.8,29.98,SW,233,7.0,10.0,64,0.00,,,0.00,meteohub,2013-05-18 23:49:00,
2013-05-18 18:54:00,84.9,71.8,29.98,SW,221,8.0,10.0,65,0.00,,,0.00,meteohub,2013-05-18 23:54:00,
2013-05-18 18:59:00,84.7,71.6,29.98,SW,235,3.0,9.0,65,0.00,,,0.00,meteohub,2013-05-18 23:59:00,
2013-05-18 19:04:00,84.6,71.4,29.99,SSW,213,5.0,11.0,65,0.00,,,0.00,meteohub,2013-05-19 00:04:00,
2013-05-18 19:09:00,84.2,71.6,29.98,SW,214,3.0,11.0,66,0.00,,,0.00,meteohub,2013-05-19 00:09:00,
2013-05-18 19:14:00,84.2,72.0,29.98,SW,225,3.0,11.0,67,0.00,,,0.00,meteohub,2013-05-19 00:14:00,
2013-05-18 19:19:00,84.0,72.0,29.98,SW,215,6.0,11.0,67,0.00,,,0.00,meteohub,2013-05-19 00:19:00,
2013-05-18 19:24:00,83.7,71.6,29.99,South,191,3.0,11.0,67,0.00,,,0.00,meteohub,2013-05-19 00:24:00,
2013-05-18 19:29:00,83.5,71.4,29.98,SW,217,2.0,7.0,67,0.00,,,0.00,meteohub,2013-05-19 00:29:00,
2013-05-18 19:34:00,83.1,71.4,29.98,SSW,210,7.0,7.0,68,0.00,,,0.00,meteohub,2013-05-19 00:34:00,
2013-05-18 19:39:00,82.9,71.2,29.98,SSW,202,0.0,6.0,68,0.00,,,0.00,meteohub,2013-05-19 00:39:00,
2013-05-18 19:44:00,82.8,71.6,29.98,SSW,202,0.0,7.0,69,0.00,,,0.00,meteohub,2013-05-19 00:44:00,
2013-05-18 19:49:00,82.6,71.8,29.98,SSW,202,1.0,7.0,70,0.00,,,0.00,meteohub,2013-05-19 00:49:00,
2013-05-18 19:54:00,82.2,71.4,29.98,SSW,202,0.0,3.0,70,0.00,,,0.00,meteohub,2013-05-19 00:54:00,
2013-05-18 19:59:00,81.5,71.2,29.98,SSW,202,1.0,3.0,71,0.00,,,0.00,meteohub,2013-05-19 00:59:00,
2013-05-18 20:04:00,80.8,70.9,29.98,SSW,202,0.0,3.0,72,0.00,,,0.00,meteohub,2013-05-19 01:04:00,
2013-05-18 20:09:00,80.2,71.2,29.98,SSW,202,2.0,3.0,74,0.00,,,0.00,meteohub,2013-05-19 01:09:00,
2013-05-18 20:14:00,80.1,71.1,29.98,SSW,202,1.0,3.0,74,0.00,,,0.00,meteohub,2013-05-19 01:14:00,
2013-05-18 20:20:00,79.9,71.2,29.98,SSW,202,1.0,3.0,75,0.00,,,0.00,meteohub,2013-05-19 01:20:00,
2013-05-18 20:25:00,79.7,71.1,29.98,SSW,202,4.0,4.0,75,0.00,,,0.00,meteohub,2013-05-19 01:25:00,
2013-05-18 20:30:00,79.5,70.9,29.98,SSW,202,0.0,4.0,75,0.00,,,0.00,meteohub,2013-05-19 01:30:00,
2013-05-18 20:35:00,79.5,70.9,29.98,SSW,202,1.0,4.0,75,0.00,,,0.00,meteohub,2013-05-19 01:35:00,
2013-05-18 20:40:00,79.3,70.7,29.98,SSW,202,3.0,4.0,75,0.00,,,0.00,meteohub,2013-05-19 01:40:00,
2013-05-18 20:45:00,79.2,70.5,29.99,SSW,202,1.0,3.0,75,0.00,,,0.00,meteohub,2013-05-19 01:45:00,
2013-05-18 20:50:00,79.2,70.5,29.99,SSW,202,1.0,3.0,75,0.00,,,0.00,meteohub,2013-05-19 01:50:00,
2013-05-18 20:55:00,79.0,70.7,29.98,SSW,202,0.0,5.0,76,0.00,,,0.00,meteohub,2013-05-19 01:55:00,
2013-05-18 21:00:00,79.0,70.7,29.99,SSW,202,3.0,5.0,76,0.00,,,0.00,meteohub,2013-05-19 02:00:00,
2013-05-18 21:05:00,79.0,70.7,29.99,SSW,202,0.0,5.0,76,0.00,,,0.00,meteohub,2013-05-19 02:05:00,
2013-05-18 21:10:00,78.8,70.5,29.99,SSW,202,4.0,4.0,76,0.00,,,0.00,meteohub,2013-05-19 02:10:00,
2013-05-18 21:15:00,78.6,70.9,29.99,SSW,202,0.0,4.0,77,0.00,,,0.00,meteohub,2013-05-19 02:15:00,
2013-05-18 21:20:00,78.4,70.7,29.98,SSW,202,0.0,4.0,77,0.00,,,0.00,meteohub,2013-05-19 02:20:00,
2013-05-18 21:30:00,78.1,70.7,29.99,SSW,202,2.0,3.0,78,0.00,,,0.00,meteohub,2013-05-19 02:30:00,
2013-05-18 21:35:00,77.7,70.7,29.99,SSW,202,1.0,3.0,79,0.00,,,0.00,meteohub,2013-05-19 02:35:00,
2013-05-18 21:40:00,77.5,70.5,29.99,SSW,202,1.0,3.0,79,0.00,,,0.00,meteohub,2013-05-19 02:40:00,
2013-05-18 21:45:00,77.4,70.3,29.99,SSW,202,3.0,3.0,79,0.00,,,0.00,meteohub,2013-05-19 02:45:00,
2013-05-18 21:50:00,77.4,70.3,29.99,SSW,202,0.0,4.0,79,0.00,,,0.00,meteohub,2013-05-19 02:50:00,
2013-05-18 21:55:00,77.2,70.2,29.99,SSW,202,1.0,4.0,79,0.00,,,0.00,meteohub,2013-05-19 02:55:00,
2013-05-18 22:00:00,77.2,70.2,29.99,SSW,198,5.0,5.0,79,0.00,,,0.00,meteohub,2013-05-19 03:00:00,
2013-05-18 22:05:00,77.0,70.3,29.99,SSW,197,2.0,6.0,80,0.00,,,0.00,meteohub,2013-05-19 03:05:00,
2013-05-18 22:10:00,76.8,70.2,29.99,SSW,192,4.0,6.0,80,0.00,,,0.00,meteohub,2013-05-19 03:10:00,
2013-05-18 22:15:00,76.6,70.3,29.99,SSW,192,2.0,5.0,81,0.00,,,0.00,meteohub,2013-05-19 03:15:00,
2013-05-18 22:20:00,76.6,70.3,29.99,South,190,3.0,5.0,81,0.00,,,0.00,meteohub,2013-05-19 03:20:00,
2013-05-18 22:25:00,76.5,70.5,29.99,South,189,4.0,5.0,82,0.00,,,0.00,meteohub,2013-05-19 03:25:00,
2013-05-18 22:30:00,76.5,70.5,29.99,South,189,1.0,5.0,82,0.00,,,0.00,meteohub,2013-05-19 03:30:00,
2013-05-18 22:35:00,76.3,70.7,29.99,South,189,1.0,5.0,83,0.00,,,0.00,meteohub,2013-05-19 03:35:00,
2013-05-18 22:40:00,75.9,70.3,29.99,South,189,2.0,4.0,83,0.00,,,0.00,meteohub,2013-05-19 03:40:00,
2013-05-18 22:45:00,75.9,70.7,29.99,South,189,3.0,5.0,84,0.00,,,0.00,meteohub,2013-05-19 03:45:00,
2013-05-18 22:50:00,75.7,70.9,29.99,South,189,3.0,5.0,85,0.00,,,0.00,meteohub,2013-05-19 03:50:00,
2013-05-18 22:55:00,75.6,71.1,29.99,SSE,167,2.0,6.0,86,0.00,,,0.00,meteohub,2013-05-19 03:55:00,
2013-05-18 23:00:00,75.6,71.4,29.99,South,188,5.0,7.0,87,0.00,,,0.00,meteohub,2013-05-19 04:00:00,
2013-05-18 23:01:00,75.6,71.4,29.99,South,176,1.0,7.0,87,0.00,,,0.00,meteohub,2013-05-19 04:01:00,
2013-05-18 23:06:00,75.4,71.6,29.99,South,190,8.0,8.0,88,0.00,,,0.00,meteohub,2013-05-19 04:06:00,
2013-05-18 23:11:00,75.2,71.4,29.99,SSW,198,1.0,8.0,88,0.00,,,0.00,meteohub,2013-05-19 04:11:00,
2013-05-18 23:16:00,75.2,71.8,29.99,SE,138,5.0,9.0,89,0.00,,,0.00,meteohub,2013-05-19 04:16:00,
2013-05-18 23:21:00,75.2,71.8,29.99,SSE,161,5.0,9.0,89,0.00,,,0.00,meteohub,2013-05-19 04:21:00,
2013-05-18 23:26:00,75.2,71.8,29.99,SSE,150,6.0,9.0,89,0.00,,,0.00,meteohub,2013-05-19 04:26:00,
2013-05-18 23:31:00,75.2,72.1,29.99,SSE,151,10.0,10.0,90,0.00,,,0.00,meteohub,2013-05-19 04:31:00,
2013-05-18 23:36:00,75.0,72.0,29.98,SSE,167,5.0,10.0,90,0.00,,,0.00,meteohub,2013-05-19 04:36:00,
2013-05-18 23:41:00,75.0,72.0,29.98,SE,141,2.0,10.0,90,0.00,,,0.00,meteohub,2013-05-19 04:41:00,
2013-05-18 23:46:00,74.8,71.8,29.98,SE,141,4.0,10.0,90,0.00,,,0.00,meteohub,2013-05-19 04:46:00,
2013-05-18 23:51:00,74.8,71.8,29.98,ESE,117,4.0,9.0,90,0.00,,,0.00,meteohub,2013-05-19 04:51:00,
2013-05-18 23:56:00,74.7,71.6,29.98,SSE,161,4.0,8.0,90,0.00,,,0.00,meteohub,2013-05-19 04:56:00,